createdAt,value
2022-08-14T00:02:07.023Z,5.07
2022-08-14T00:04:44.745Z,5.68
2022-08-14T00:07:13.806Z,4.90
2022-08-14T00:10:01.172Z,5.70
2022-08-14T00:12:33.917Z,5.18
2022-08-14T00:15:43.687Z,5.78
2022-08-14T00:18:14.316Z,6.00
2022-08-14T00:20:42.945Z,6.20
2022-08-14T00:23:16.528Z,5.45
2022-08-14T00:25:53.941Z,5.60
2022-08-14T00:28:32.447Z,5.40
2022-08-14T00:31:00.065Z,6.15
2022-08-14T00:33:50.533Z,5.72
2022-08-14T00:36:36.817Z,5.63
2022-08-14T00:39:01.691Z,6.10
2022-08-14T00:41:33.413Z,5.70
2022-08-14T00:44:00.271Z,6.03
2022-08-14T00:46:32.660Z,5.47
2022-08-14T00:49:00.786Z,5.35
2022-08-14T00:51:38.090Z,5.38
2022-08-14T00:54:17.032Z,5.75
2022-08-14T00:56:50.451Z,5.20
2022-08-14T00:59:17.227Z,5.90
2022-08-14T01:01:45.433Z,6.22
2022-08-14T01:04:38.052Z,5.88
2022-08-14T01:07:00.736Z,5.97
2022-08-14T01:09:31.984Z,6.20
2022-08-14T01:12:03.542Z,6.10
2022-08-14T01:14:30.952Z,6.15
2022-08-14T01:16:58.087Z,5.93
2022-08-14T01:19:46.697Z,6.05
2022-08-14T01:22:18.663Z,6.00
2022-08-14T01:24:46.904Z,6.35
2022-08-14T01:27:22.405Z,6.20
2022-08-14T01:29:58.983Z,6.38
2022-08-14T01:32:29.997Z,6.43
2022-08-14T01:35:19.194Z,5.75
2022-08-14T01:37:46.743Z,6.47
2022-08-14T01:40:36.375Z,6.68
2022-08-14T01:43:14.334Z,6.68
2022-08-14T01:45:42.273Z,6.75
2022-08-14T01:48:13.403Z,6.70
2022-08-14T01:50:42.175Z,6.88
2022-08-14T01:53:09.704Z,7.15
2022-08-14T01:55:39.167Z,6.47
2022-08-14T01:58:19.614Z,6.15
2022-08-14T02:00:54.991Z,6.57
2022-08-14T02:03:23.544Z,6.82
2022-08-14T02:05:50.351Z,6.78
2022-08-14T02:08:22.492Z,6.35
2022-08-14T02:11:17.121Z,7.07
2022-08-14T02:13:47.895Z,7.22
2022-08-14T02:16:22.030Z,6.50
2022-08-14T02:18:49.413Z,6.70
2022-08-14T02:21:18.412Z,6.60
2022-08-14T02:23:48.583Z,6.20
2022-08-14T02:26:24.604Z,6.63
2022-08-14T02:28:57.991Z,7.50
2022-08-14T02:31:36.691Z,6.78
2022-08-14T02:34:27.421Z,6.93
2022-08-14T02:37:04.947Z,6.57
2022-08-14T02:39:39.500Z,6.93
2022-08-14T02:42:17.575Z,7.07
2022-08-14T02:44:50.680Z,7.05
2022-08-14T02:47:20.854Z,7.40
2022-08-14T02:49:50.332Z,7.38
2022-08-14T02:52:55.895Z,6.85
2022-08-14T02:55:05.690Z,6.70
2022-08-14T02:57:39.167Z,6.60
2022-08-14T03:00:09.920Z,6.95
2022-08-14T03:02:56.834Z,7.05
2022-08-14T03:05:24.106Z,6.63
2022-08-14T03:07:52.841Z,7.25
2022-08-14T03:10:26.876Z,7.60
2022-08-14T03:12:59.008Z,7.47
2022-08-14T03:15:27.468Z,7.10
2022-08-14T03:17:57.132Z,7.80
2022-08-14T03:20:27.880Z,7.53
2022-08-14T03:22:56.999Z,7.45
2022-08-14T03:25:23.685Z,7.35
2022-08-14T03:27:59.140Z,7.35
2022-08-14T03:30:39.756Z,7.55
2022-08-14T03:33:10.317Z,7.50
2022-08-14T03:35:40.254Z,7.72
2022-08-14T03:39:12.655Z,7.57
2022-08-14T03:41:16.463Z,7.75
2022-08-14T03:43:57.056Z,8.30
2022-08-14T03:46:39.012Z,7.75
2022-08-14T03:49:24.066Z,7.93
2022-08-14T03:51:55.567Z,8.40
2022-08-14T03:54:24.407Z,8.18
2022-08-14T03:56:51.174Z,8.38
2022-08-14T03:59:19.756Z,8.27
2022-08-14T04:01:58.203Z,8.05
2022-08-14T04:04:32.365Z,8.65
2022-08-14T04:07:00.737Z,8.60
2022-08-14T04:09:27.832Z,8.82
2022-08-14T04:11:56.176Z,8.07
2022-08-14T04:14:24.956Z,8.60
2022-08-14T04:16:51.813Z,8.65
2022-08-14T04:19:22.317Z,8.50
2022-08-14T04:22:03.826Z,8.95
2022-08-14T04:24:37.870Z,8.73
2022-08-14T04:27:10.472Z,9.18
2022-08-14T04:29:45.149Z,9.57
2022-08-14T04:33:02.615Z,8.98
2022-08-14T04:35:00.896Z,9.18
2022-08-14T04:37:46.704Z,9.55
2022-08-14T04:40:59.731Z,8.75
2022-08-14T04:43:38.730Z,9.18
2022-08-14T04:46:07.345Z,8.85
2022-08-14T04:48:43.277Z,9.25
2022-08-14T04:51:15.728Z,8.13
2022-08-14T04:53:45.951Z,8.70
2022-08-14T04:56:31.428Z,9.50
2022-08-14T04:59:10.386Z,9.38
2022-08-14T05:01:47.645Z,9.43
2022-08-14T05:04:20.491Z,9.82
2022-08-14T05:06:49.454Z,9.80
2022-08-14T05:09:16.246Z,9.48
2022-08-14T05:11:44.657Z,9.00
2022-08-14T05:14:33.065Z,9.35
2022-08-14T05:17:01.986Z,8.93
2022-08-14T05:19:32.018Z,10.02
2022-08-14T05:22:15.628Z,9.50
2022-08-14T05:24:43.093Z,9.85
2022-08-14T05:27:10.476Z,9.45
2022-08-14T05:29:37.343Z,9.55
2022-08-14T05:32:07.433Z,9.60
2022-08-14T05:34:34.109Z,9.65
2022-08-14T05:37:03.240Z,9.82
2022-08-14T05:39:31.259Z,10.38
2022-08-14T05:41:59.087Z,9.80
2022-08-14T05:44:30.313Z,10.05
2022-08-14T05:46:58.500Z,10.18
2022-08-14T05:49:25.966Z,9.75
2022-08-14T05:52:01.898Z,10.43
2022-08-14T05:54:35.263Z,9.35
2022-08-14T05:57:04.735Z,10.20
2022-08-14T05:59:39.030Z,9.65
2022-08-14T06:02:11.021Z,10.23
2022-08-14T06:04:39.487Z,10.20
2022-08-14T06:07:06.743Z,10.23
2022-08-14T06:09:36.033Z,10.32
2022-08-14T06:12:09.645Z,10.52
2022-08-14T06:14:37.304Z,9.93
2022-08-14T06:17:07.050Z,9.85
2022-08-14T06:19:34.145Z,10.68
2022-08-14T06:22:01.729Z,10.00
2022-08-14T06:24:30.763Z,10.52
2022-08-14T06:27:04.633Z,10.38
2022-08-14T06:29:35.073Z,9.95
2022-08-14T06:32:37.967Z,10.35
2022-08-14T06:35:11.097Z,10.02
2022-08-14T06:37:45.136Z,10.23
2022-08-14T06:40:25.462Z,10.88
2022-08-14T06:43:00.295Z,10.80
2022-08-14T06:45:31.106Z,10.50
2022-08-14T06:47:58.673Z,10.32
2022-08-14T06:50:28.749Z,11.23
2022-08-14T06:52:58.423Z,10.45
2022-08-14T06:55:27.799Z,9.77
2022-08-14T06:57:54.807Z,10.63
2022-08-14T07:00:26.903Z,9.52
2022-08-14T07:03:14.271Z,10.48
2022-08-14T07:05:55.541Z,10.07
2022-08-14T07:08:29.700Z,10.05
2022-08-14T07:11:00.893Z,10.57
2022-08-14T07:13:28.606Z,9.77
2022-08-14T07:15:59.164Z,10.10
2022-08-14T07:18:29.700Z,9.65
2022-08-14T07:20:58.753Z,9.20
2022-08-14T07:23:26.461Z,9.25
2022-08-14T07:25:58.398Z,9.48
2022-08-14T07:28:32.298Z,9.05
2022-08-14T07:31:04.247Z,9.68
2022-08-14T07:33:36.498Z,9.82
2022-08-14T07:36:26.566Z,9.48
2022-08-14T07:38:52.846Z,9.40
2022-08-14T07:41:19.545Z,8.45
2022-08-14T07:43:53.087Z,9.65
2022-08-14T07:46:28.622Z,8.93
2022-08-14T07:48:56.991Z,8.65
2022-08-14T07:51:23.917Z,8.73
2022-08-14T07:53:57.085Z,8.40
2022-08-14T07:56:48.084Z,8.35
2022-08-14T07:59:11.751Z,7.70
2022-08-14T08:01:51.066Z,8.15
2022-08-14T08:04:24.950Z,7.32
2022-08-14T08:06:52.921Z,7.82
2022-08-14T08:09:25.037Z,7.60
2022-08-14T08:12:01.722Z,8.48
2022-08-14T08:14:56.555Z,8.38
2022-08-14T08:17:23.527Z,7.88
2022-08-14T08:19:51.438Z,8.38
2022-08-14T08:22:21.082Z,7.43
2022-08-14T08:24:50.373Z,7.65
2022-08-14T08:27:21.727Z,7.65
2022-08-14T08:29:50.996Z,8.18
2022-08-14T08:32:18.402Z,8.05
2022-08-14T08:34:48.383Z,7.82
2022-08-14T08:37:15.977Z,7.40
2022-08-14T08:40:02.813Z,7.65
2022-08-14T08:42:38.579Z,7.80
2022-08-14T08:45:12.073Z,7.32
2022-08-14T08:47:42.079Z,7.95
2022-08-14T08:53:11.918Z,7.03
2022-08-14T08:55:43.946Z,7.60
2022-08-14T08:58:19.979Z,7.22
2022-08-14T09:00:55.349Z,7.10
2022-08-14T09:03:27.590Z,6.93
2022-08-14T09:06:52.282Z,7.15
2022-08-14T09:08:51.936Z,6.88
2022-08-14T09:11:21.430Z,6.85
2022-08-14T09:13:52.944Z,6.57
2022-08-14T09:16:25.279Z,6.57
2022-08-14T09:18:53.842Z,6.93
2022-08-14T09:21:24.274Z,6.50
2022-08-14T09:24:29.289Z,6.88
2022-08-14T09:26:44.288Z,6.22
2022-08-14T09:29:16.707Z,6.47
2022-08-14T09:31:53.189Z,6.32
2022-08-14T09:34:47.408Z,6.22
2022-08-14T09:37:39.185Z,6.68
2022-08-14T09:40:43.990Z,6.57
2022-08-14T09:43:51.678Z,6.35
2022-08-14T09:46:21.394Z,6.40
2022-08-14T09:49:12.060Z,6.40
2022-08-14T09:51:58.440Z,6.18
2022-08-14T09:54:45.815Z,5.97
2022-08-14T09:57:27.646Z,6.15
2022-08-14T09:59:56.519Z,6.40
2022-08-14T10:02:25.315Z,6.50
2022-08-14T10:05:01.871Z,5.82
2022-08-14T10:07:36.550Z,6.68
2022-08-14T10:10:23.504Z,6.43
2022-08-14T10:12:53.154Z,6.47
2022-08-14T10:15:27.789Z,6.72
2022-08-14T10:18:09.549Z,6.35
2022-08-14T10:20:59.087Z,5.93
2022-08-14T10:23:38.458Z,6.38
2022-08-14T10:26:09.909Z,6.22
2022-08-14T10:29:18.906Z,6.20
2022-08-14T10:31:44.744Z,6.55
2022-08-14T10:34:14.037Z,6.28
2022-08-14T10:36:45.695Z,6.88
2022-08-14T10:39:27.947Z,6.03
2022-08-14T10:42:16.339Z,6.20
2022-08-14T10:44:48.989Z,5.70
2022-08-14T10:47:39.476Z,5.90
2022-08-14T10:50:07.669Z,5.72
2022-08-14T10:52:42.293Z,5.68
2022-08-14T10:55:19.171Z,5.75
2022-08-14T10:57:53.539Z,4.90
2022-08-14T11:00:29.943Z,4.88
2022-08-14T11:03:13.158Z,5.45
2022-08-14T11:05:52.149Z,4.85
2022-08-14T11:08:33.827Z,4.65
2022-08-14T11:11:05.324Z,5.45
2022-08-14T11:13:32.591Z,5.65
2022-08-14T11:16:01.379Z,5.40
2022-08-14T11:18:35.715Z,4.78
2022-08-14T11:21:06.639Z,4.60
2022-08-14T11:23:38.321Z,4.65
2022-08-14T11:26:07.975Z,5.00
2022-08-14T11:28:47.053Z,5.38
2022-08-14T11:31:20.033Z,5.00
2022-08-14T11:33:57.428Z,4.85
2022-08-14T11:36:35.252Z,5.00
2022-08-14T11:39:33.475Z,4.85
2022-08-14T11:42:57.320Z,4.65
2022-08-14T11:44:53.560Z,4.05
2022-08-14T11:47:24.635Z,4.30
2022-08-14T11:49:51.899Z,4.70
2022-08-14T11:52:19.254Z,5.10
2022-08-14T11:54:58.350Z,4.30
2022-08-14T11:57:26.070Z,5.20
2022-08-14T12:00:09.695Z,4.65
2022-08-14T12:03:03.175Z,4.97
2022-08-14T12:05:39.634Z,4.85
2022-08-14T12:08:12.143Z,4.82
2022-08-14T12:10:43.453Z,5.50
2022-08-14T12:13:17.582Z,5.25
2022-08-14T12:15:45.531Z,4.90
2022-08-14T12:18:19.385Z,4.53
2022-08-14T12:20:52.476Z,4.82
2022-08-14T12:23:23.747Z,4.55
2022-08-14T12:26:39.357Z,4.70
2022-08-14T12:29:10.114Z,4.82
2022-08-14T12:31:44.941Z,4.72
2022-08-14T12:34:20.432Z,4.57
2022-08-14T12:36:49.774Z,4.45
2022-08-14T12:39:21.033Z,4.80
2022-08-14T12:41:57.038Z,5.03
2022-08-14T12:44:35.310Z,4.63
2022-08-14T12:47:13.395Z,5.20
2022-08-14T12:49:57.577Z,4.80
2022-08-14T12:52:56.099Z,4.95
2022-08-14T12:56:18.704Z,4.80
2022-08-14T12:58:35.503Z,4.90
2022-08-14T13:01:27.244Z,4.65
2022-08-14T13:04:15.673Z,4.93
2022-08-14T13:06:50.856Z,5.18
2022-08-14T13:09:18.910Z,4.60
2022-08-14T13:11:58.572Z,5.15
2022-08-14T13:14:38.618Z,4.97
2022-08-14T13:17:06.083Z,5.25
2022-08-14T13:19:35.400Z,5.15
2022-08-14T13:22:09.394Z,4.70
2022-08-14T13:24:39.425Z,4.93
2022-08-14T13:27:09.754Z,5.25
2022-08-14T13:29:47.176Z,5.50
2022-08-14T13:32:14.909Z,5.50
2022-08-14T13:34:43.668Z,5.60
2022-08-14T13:37:14.390Z,5.10
2022-08-14T13:39:57.075Z,5.53
2022-08-14T13:42:27.663Z,4.82
2022-08-14T13:45:00.371Z,5.07
2022-08-14T13:47:30.276Z,5.45
2022-08-14T13:50:00.365Z,5.22
2022-08-14T13:52:51.529Z,5.07
2022-08-14T13:55:19.062Z,5.57
2022-08-14T13:57:53.349Z,5.60
2022-08-14T14:00:35.690Z,4.65
2022-08-14T14:03:06.076Z,4.93
2022-08-14T14:05:53.382Z,5.25
2022-08-14T14:08:47.598Z,5.28
2022-08-14T14:11:10.005Z,5.47
2022-08-14T14:13:41.833Z,5.03
2022-08-14T14:16:15.229Z,4.90
2022-08-14T14:18:48.898Z,5.25
2022-08-14T14:21:20.463Z,5.53
2022-08-14T14:23:49.125Z,5.13
2022-08-14T14:26:23.213Z,5.35
2022-08-14T14:28:55.250Z,5.40
2022-08-14T14:31:30.117Z,5.45
2022-08-14T14:34:19.871Z,4.53
2022-08-14T14:36:52.529Z,5.05
2022-08-14T14:39:25.216Z,5.30
2022-08-14T14:41:56.554Z,5.07
2022-08-14T14:44:26.909Z,5.05
2022-08-14T14:46:54.357Z,5.72
2022-08-14T14:49:31.853Z,4.97
2022-08-14T14:52:23.465Z,5.20
2022-08-14T14:54:56.571Z,5.20
2022-08-14T14:57:27.766Z,5.50
2022-08-14T15:00:02.388Z,5.05
2022-08-14T15:02:38.243Z,5.45
2022-08-14T15:05:07.959Z,5.00
2022-08-14T15:07:36.415Z,5.05
2022-08-14T15:10:28.010Z,4.75
2022-08-14T15:12:56.540Z,4.88
2022-08-14T15:15:24.408Z,5.32
2022-08-14T15:17:54.740Z,5.30
2022-08-14T15:20:30.536Z,5.05
2022-08-14T15:23:00.931Z,5.10
2022-08-14T15:25:35.384Z,5.47
2022-08-14T15:28:02.123Z,4.97
2022-08-14T15:30:32.632Z,5.07
2022-08-14T15:32:59.756Z,4.93
2022-08-14T15:35:29.608Z,5.05
2022-08-14T15:38:07.821Z,5.57
2022-08-14T15:40:41.722Z,5.45
2022-08-14T15:43:13.329Z,5.45
2022-08-14T15:45:41.253Z,5.57
2022-08-14T15:48:08.971Z,5.18
2022-08-14T15:50:50.748Z,5.38
2022-08-14T15:53:18.833Z,5.10
2022-08-14T15:55:46.455Z,5.40
2022-08-14T15:58:14.400Z,5.32
2022-08-14T16:01:00.055Z,5.38
2022-08-14T16:03:37.165Z,5.50
2022-08-14T16:06:15.732Z,5.38
2022-08-14T16:08:50.256Z,5.55
2022-08-14T16:11:26.116Z,5.60
2022-08-14T16:13:57.483Z,5.35
2022-08-14T16:16:34.572Z,5.47
2022-08-14T16:19:19.014Z,5.75
2022-08-14T16:22:02.666Z,5.45
2022-08-14T16:24:35.929Z,5.40
2022-08-14T16:27:37.071Z,5.53
2022-08-14T16:30:24.829Z,5.40
2022-08-14T16:32:57.061Z,5.38
2022-08-14T16:35:42.671Z,5.40
2022-08-14T16:38:35.800Z,4.80
2022-08-14T16:41:23.017Z,5.35
2022-08-14T16:44:04.797Z,5.38
2022-08-14T16:46:42.947Z,4.97
2022-08-14T16:49:13.815Z,5.43
2022-08-14T16:51:41.440Z,4.68
2022-08-14T16:54:33.861Z,5.00
2022-08-14T16:57:21.134Z,5.50
2022-08-14T16:59:57.405Z,5.38
2022-08-14T17:03:03.861Z,5.18
2022-08-14T17:05:37.116Z,4.63
2022-08-14T17:08:03.738Z,4.85
2022-08-14T17:10:50.295Z,5.03
2022-08-14T17:13:19.530Z,4.90
2022-08-14T17:16:10.421Z,4.82
2022-08-14T17:18:55.453Z,4.90
2022-08-14T17:21:32.346Z,4.78
2022-08-14T17:24:57.433Z,4.90
2022-08-14T17:26:55.275Z,4.78
2022-08-14T17:29:29.513Z,5.30
2022-08-14T17:32:21.790Z,4.95
2022-08-14T17:34:53.866Z,4.88
2022-08-14T17:37:37.398Z,5.03
2022-08-14T17:40:15.146Z,5.18
2022-08-14T17:45:26.906Z,4.82
2022-08-14T17:47:59.290Z,5.28
2022-08-14T17:51:00.008Z,5.10
2022-08-14T17:53:27.742Z,5.00
2022-08-14T17:56:02.146Z,5.90
2022-08-14T17:58:38.695Z,5.68
2022-08-14T18:01:12.990Z,5.47
2022-08-14T18:03:50.961Z,5.90
2022-08-14T18:06:40.029Z,5.50
2022-08-14T18:09:25.186Z,5.32
2022-08-14T18:11:55.101Z,5.47
2022-08-14T18:14:32.897Z,5.50
2022-08-14T18:17:10.597Z,5.20
2022-08-14T18:19:41.645Z,6.05
2022-08-14T18:22:23.848Z,5.50
2022-08-14T18:24:57.359Z,5.80
2022-08-14T18:27:41.648Z,5.80
2022-08-14T18:30:36.482Z,5.70
2022-08-14T18:32:59.127Z,6.05
2022-08-14T18:35:58.083Z,6.07
2022-08-14T18:38:52.411Z,5.93
2022-08-14T18:41:36.292Z,6.05
2022-08-14T18:44:10.944Z,5.68
2022-08-14T18:47:10.103Z,6.57
2022-08-14T18:49:54.454Z,6.15
2022-08-14T18:52:29.679Z,6.25
2022-08-14T18:54:59.642Z,5.97
2022-08-14T18:57:27.171Z,5.82
2022-08-14T19:00:32.163Z,6.13
2022-08-14T19:03:04.758Z,5.57
2022-08-14T19:05:47.896Z,5.82
2022-08-14T19:08:24.941Z,5.82
2022-08-14T19:10:57.280Z,6.20
2022-08-14T19:13:48.546Z,5.80
2022-08-14T19:16:19.027Z,5.63
2022-08-14T19:19:00.240Z,6.03
2022-08-14T19:21:33.170Z,5.22
2022-08-14T19:24:29.428Z,5.65
2022-08-14T19:27:22.972Z,6.15
2022-08-14T19:30:19.883Z,5.47
2022-08-14T19:32:52.354Z,5.53
2022-08-14T19:35:25.025Z,5.97
2022-08-14T19:38:32.015Z,5.90
2022-08-14T19:41:01.443Z,6.20
2022-08-14T19:43:56.582Z,6.45
2022-08-14T19:46:37.775Z,6.32
2022-08-14T19:49:07.918Z,6.22
2022-08-14T19:51:46.159Z,6.28
2022-08-14T19:54:16.003Z,6.00
2022-08-14T19:56:45.125Z,6.10
2022-08-14T19:59:18.043Z,6.03
2022-08-14T20:01:49.553Z,6.32
2022-08-14T20:04:46.212Z,5.80
2022-08-14T20:07:28.391Z,6.80
2022-08-14T20:11:05.013Z,6.13
2022-08-14T20:13:32.670Z,6.43
2022-08-14T20:16:06.870Z,6.10
2022-08-14T20:18:50.114Z,6.25
2022-08-14T20:21:18.330Z,7.32
2022-08-14T20:23:47.931Z,6.68
2022-08-14T20:26:31.220Z,6.60
2022-08-14T20:29:04.374Z,6.35
2022-08-14T20:31:36.980Z,6.75
2022-08-14T20:34:19.031Z,6.50
2022-08-14T20:37:09.969Z,6.60
2022-08-14T20:39:53.596Z,6.65
2022-08-14T20:42:43.786Z,6.78
2022-08-14T20:45:21.702Z,6.93
2022-08-14T20:48:07.150Z,6.45
2022-08-14T20:50:34.412Z,6.70
2022-08-14T20:53:26.039Z,7.13
2022-08-14T20:55:54.243Z,7.13
2022-08-14T20:58:38.710Z,7.25
2022-08-14T21:01:11.253Z,7.05
2022-08-14T21:03:57.342Z,6.70
2022-08-14T21:06:29.852Z,7.28
2022-08-14T21:09:18.447Z,6.85
2022-08-14T21:12:02.918Z,6.88
2022-08-14T21:14:30.029Z,6.97
2022-08-14T21:16:58.309Z,6.90
2022-08-14T21:19:26.207Z,6.90
2022-08-14T21:21:55.501Z,7.40
2022-08-14T21:24:39.749Z,7.18
2022-08-14T21:27:19.707Z,7.55
2022-08-14T21:29:55.335Z,7.10
2022-08-14T21:32:50.572Z,7.38
2022-08-14T21:35:25.931Z,7.47
2022-08-14T21:37:53.612Z,7.45
2022-08-14T21:40:41.091Z,6.80
2022-08-14T21:43:17.364Z,7.28
2022-08-14T21:45:53.449Z,6.95
2022-08-14T21:48:22.321Z,7.40
2022-08-14T21:51:01.225Z,6.88
2022-08-14T21:53:58.547Z,7.90
2022-08-14T21:56:37.116Z,7.28
2022-08-14T21:59:09.523Z,6.95
2022-08-14T22:02:00.676Z,6.97
2022-08-14T22:04:33.637Z,7.57
2022-08-14T22:07:11.206Z,7.13
2022-08-14T22:09:42.748Z,7.43
2022-08-14T22:12:11.377Z,7.20
2022-08-14T22:14:58.012Z,7.15
2022-08-14T22:17:26.024Z,7.40
2022-08-14T22:20:01.096Z,7.32
2022-08-14T22:22:29.334Z,6.85
2022-08-14T22:24:59.724Z,6.82
2022-08-14T22:27:29.422Z,7.03
2022-08-14T22:29:58.391Z,7.00
2022-08-14T22:32:56.068Z,6.70
2022-08-14T22:35:16.207Z,6.78
2022-08-14T22:37:44.198Z,6.85
2022-08-14T22:40:46.121Z,6.70
2022-08-14T22:43:08.448Z,6.90
2022-08-14T22:45:37.689Z,7.15
2022-08-14T22:48:10.834Z,6.53
2022-08-14T22:50:49.234Z,6.63
2022-08-14T22:53:21.762Z,6.90
2022-08-14T22:55:52.329Z,7.18
2022-08-14T22:58:30.548Z,6.60
2022-08-14T23:01:01.223Z,6.40
2022-08-14T23:03:29.592Z,6.90
2022-08-14T23:06:01.993Z,6.40
2022-08-14T23:08:58.288Z,7.00
2022-08-14T23:11:15.816Z,7.55
2022-08-14T23:13:46.115Z,7.70
2022-08-14T23:16:20.107Z,6.82
2022-08-14T23:18:53.619Z,6.53
2022-08-14T23:21:24.489Z,6.50
2022-08-14T23:23:55.026Z,7.18
2022-08-14T23:26:48.072Z,7.07
2022-08-14T23:29:11.272Z,7.13
2022-08-14T23:31:39.281Z,7.40
2022-08-14T23:34:09.458Z,7.82
2022-08-14T23:36:54.514Z,7.88
2022-08-14T23:39:34.586Z,8.05
2022-08-14T23:42:08.740Z,8.80
2022-08-14T23:44:37.482Z,8.30
2022-08-14T23:47:10.712Z,8.77
2022-08-14T23:49:49.665Z,8.35
2022-08-14T23:53:04.116Z,8.32
2022-08-14T23:55:12.515Z,8.18
2022-08-14T23:57:43.649Z,8.25
